ADDS METAR Data INFO
IDs: Format: Raw Decoded Include TAF

Data at: 1926 UTC 23 Apr 2018

KTCL 231853Z 18011KT 10SM FEW034 BKN070 21/14 A2990 RMK AO2 SLP121 T02110144
KTCL 231753Z 21007KT 10SM SCT030 BKN080 20/15 A2991 RMK AO2 SLP126 T02000150 10206 20156 58014
KTCL 231653Z 19007KT 10SM SCT023 SCT040 BKN065 20/15 A2993 RMK AO2 SLP133 T02000150
KTCL 231553Z 22005KT 10SM FEW018 BKN041 OVC080 18/15 A2995 RMK AO2 SLP139 T01780150
KTCL 231453Z 19004KT 10SM SCT019 SCT033 BKN041 17/16 A2995 RMK AO2 SLP139 T01720156 50002
KTCL 231448Z 18003KT 10SM SCT021 BKN036 OVC055 17/16 A2995 RMK AO2
KTCL 231412Z 00000KT 10SM FEW007 OVC024 17/16 A2995 RMK AO2 T01670161
KTCL 231353Z 22003KT 10SM OVC023 16/16 A2995 RMK AO2 SLP139 T01610156
KTCL 231253Z 00000KT 10SM OVC019 16/16 A2994 RMK AO2 SLP138 T01610156
KTCL 231153Z 00000KT 9SM BKN023 OVC065 16/16 A2993 RMK AO2 SLP134 70247 T01560156 10156 20150 51011 $
KTCL 231150Z 00000KT 9SM BKN023 OVC065 16/16 A2993 RMK AO2 $
KTCL 231129Z AUTO 00000KT 9SM SCT020 BKN065 16/16 A2992 RMK AO2 T01560156 $
KTCL 231053Z AUTO 00000KT 10SM OVC016 16/16 A2991 RMK AO2 SLP128 T01560156 $
KTCL 230953Z AUTO 23004KT 10SM OVC011 16/15 A2990 RMK AO2 SLP123 T01560150 $
KTCL 230943Z AUTO 23004KT 10SM OVC011 16/15 A2990 RMK AO2 T01560150 $
KTCL 230853Z AUTO 23004KT 10SM OVC007 16/16 A2989 RMK AO2 CIG 005V010 SLP120 T01560156 55000 $
KTCL 230753Z AUTO 21006KT 10SM OVC007 16/16 A2988 RMK AO2 CIG 005V012 SLP115 T01560156 $
KTCL 230653Z AUTO 18007KT 10SM OVC006 16/16 A2988 RMK AO2 SLP117 T01560156 $
KTCL 230553Z AUTO 18003KT 10SM OVC008 16/16 A2989 RMK AO2 SLP120 60025 T01560156 10183 20156 402060156 51013 $
KTCL 230517Z AUTO 20006KT 10SM BKN009 16/16 A2989 RMK AO2 CIG 007V012 T01560156 $
KTCL 230453Z AUTO 20007KT 10SM OVC010 16/16 A2989 RMK AO2 CIG 008V014 SLP119 T01610156 $
KTCL 230353Z AUTO 21006KT 10SM OVC014 17/16 A2987 RMK AO2 SLP114 T01670161 $
KTCL 230253Z AUTO 24007KT 10SM BKN014 OVC019 17/17 A2985 RMK AO2 SLP106 60025 T01720167 53042 $
KTCL 230230Z AUTO 24008KT 10SM OVC012 17/17 A2983 RMK AO2 T01720167 $
KTCL 230153Z AUTO 23014G19KT 10SM OVC009 17/17 A2979 RMK AO2 RAE0059 SLP086 P0000 T01720167 $
KTCL 230133Z AUTO 24012G23KT 7SM OVC009 17/17 A2978 RMK AO2 RAE0059 CIG 008V013 P0000 T01720172 $
KTCL 230102Z AUTO 22009KT 10SM BKN011 OVC048 18/18 A2976 RMK AO2 RAE0059 PRESRR P0000 T01830183 $
KTCL 230053Z AUTO 22006KT 9SM -RA BKN009 BKN015 OVC043 18/18 A2974 RMK AO2 LTG DSNT NE-SE SLP070 P0025 T01830183 $
KTCL 230044Z 22006KT 5SM -RA BR BKN010 OVC044 18/18 A2973 RMK AO2 LTG DSNT NE-SE P0024 T01830183 $
KTCL 230031Z 21006KT 2 1/2SM RA BR SCT009 BKN014 OVC028 18/18 A2974 RMK AO2 LTG DSNT SE P0023 T01830183 $
KTCL 230028Z 22007KT 2 1/2SM VCTS -RA BR BKN011 BKN017 OVC028 18/18 A2974 RMK AO2 LTG DSNT SE AND S P0021 T01830183 $
KTCL 230015Z 23006KT 3SM VCTS -RA BR FEW011 BKN024 OVC045 18/18 A2973 RMK AO2 LTG DSNT S P0017 T01830183 $
KTCL 230005Z 20006KT 1SM VCTS +RA BR FEW009 BKN016 OVC033 18/18 A2973 RMK AO2 LTG DSNT SE AND S P0015 T01830183 $
KTCL 230001Z 18008KT 3/4SM VCTS +RA BR BKN016 OVC033 18/18 A2973 RMK AO2 LTG DSNT SE AND S P0011 T01830183 $
KTCL 222353Z 24010G24KT 1/2SM +RA FG FEW010 OVC014 18/18 A2973 RMK AO2 PK WND 27029/2338 WSHFT 2309 LTG DSNT S TSB04E19 SLP064 P0134 60204 T01830183 10206 20183 56012
KTCL 222348Z 24010G27KT 1/4SM +RA FG VV012 18/18 A2973 RMK AO2 PK WND 27029/2338 WSHFT 2309 LTG DSNT S TSB04E19 P0121
KTCL 222334Z 23014G22KT 1/4SM +RA FG FEW010 BKN015 OVC024 19/19 A2974 RMK AO2 PK WND 15029/2308 WSHFT 2309 LTG DSNT N AND NE AND S TSB04E19 P0053 T01890189
KTCL 222330Z 24014G22KT 1/2SM +RA FG BKN012 BKN028 OVC045 19/19 A2973 RMK AO2 PK WND 15029/2308 WSHFT 2309 LTG DSNT N AND NE TSB04E19 P0030 T01890189
KTCL 222326Z 26012G22KT 1 3/4SM -RA BR SCT009 BKN015 OVC060 19/19 A2973 RMK AO2 PK WND 15029/2308 WSHFT 2309 LTG DSNT N AND NE TSB04E19 PRESRR P0011 T01940194
KTCL 222321Z 26013G22KT 7SM VCTS -RA FEW009 BKN015 OVC055 20/19 A2972 RMK AO2 PK WND 15029/2308 WSHFT 2305 LTG DSNT N AND NE TSB04E19 PRESRR P0001 T02000194
KTCL 222310Z 14014G29KT 10SM -TSRA BKN016 BKN024 OVC060 20/19 A2967 RMK AO2 PK WND 15029/2308 LTG DSNT N AND NE TSB04 P0000 T02000189
KTCL 222253Z 14014G27KT 6SM VCTS -RA BR BKN017 BKN024 OVC028 20/19 A2970 RMK AO2 PK WND 12027/2247 LTG DSNT SW-N RAB15 PRESFR SLP054 P0000 T02000189
KTCL 222226Z 13013G22KT 080V150 10SM VCTS -RA SCT014 BKN020 OVC033 20/19 A2973 RMK AO2 LTG DSNT W-N RAB15 P0000 T02000189
KTCL 222153Z 11008KT 10SM BKN013 BKN020 OVC050 19/19 A2976 RMK AO2 LTG DSNT NW RAE46 SLP076 P0017 T01890189
KTCL 222139Z 13009KT 6SM -RA BR SCT016 BKN028 OVC055 19/18 A2977 RMK AO2 LTG DSNT W P0016 T01890183
KTCL 222134Z 13007KT 2 1/2SM -RA BR FEW016 BKN039 OVC050 19/18 A2978 RMK AO2 VIS 1 1/4V5 LTG DSNT W P0016 T01890183
KTCL 222122Z 17014G24KT 1 1/4SM +RA BR FEW010 BKN024 OVC039 19/18 A2979 RMK AO2 LTG DSNT W P0012 T01890183
KTCL 222108Z 14010G16KT 2 1/2SM -RA BR FEW011 BKN024 OVC042 19/19 A2980 RMK AO2 P0003 T01940189
KTCL 222101Z 13010KT 1 3/4SM RA BR SCT011 BKN018 OVC031 19/19 A2981 RMK AO2 P0002 T01890189
KTCL 222053Z 13008KT 2 1/2SM RA BR SCT012 BKN016 OVC046 19/19 A2981 RMK AO2 SLP093 P0011 60053 T01940189 58042
KTCL 222018Z 13007KT 3SM -RA BR SCT011 BKN027 OVC044 19/19 A2984 RMK AO2 P0007 T01890189
KTCL 222012Z 11006KT 2SM RA BR BKN009 BKN021 OVC046 19/19 A2984 RMK AO2 P0006 T01890189
KTCL 222000Z 14009KT 2 1/2SM RA BR SCT007 BKN012 OVC018 19/19 A2986 RMK AO2 P0002 T01890189
KTCL 221953Z 14007KT 1 3/4SM RA BR BKN007 OVC010 18/18 A2986 RMK AO2 SLP111 P0019 T01830183
KTCL 221946Z 15008KT 1 1/2SM +RA BR BKN007 OVC012 18/18 A2987 RMK AO2 CIG 005V009 P0015 T01830183
KTCL 221929Z 12005G16KT 2 1/2SM RA BR BKN009 BKN013 OVC060 18/18 A2987 RMK AO2 P0006 T01830183
KTCL 221916Z 10007KT 5SM -RA BR BKN011 BKN018 OVC060 18/18 A2987 RMK AO2 P0003 T01830183
KTCL 221909Z 10006G16KT 4SM -RA BR SCT009 BKN020 OVC060 18/18 A2988 RMK AO2 P0003 T01830183
KTCL 221900Z 10010G16KT 2 1/2SM -RA BR FEW009 BKN022 OVC060 18/18 A2988 RMK AO2 VIS 1 3/4V4 PRESFR P0002 T01830183
KTCL 221853Z 09010G17KT 3SM RA BR FEW009 BKN015 OVC022 18/18 A2989 RMK AO2 SLP121 P0023 T01830183
KTCL 221844Z 09009G18KT 5SM -RA BR SCT008 BKN014 OVC024 18/18 A2990 RMK AO2 P0020 T01830178
KTCL 221837Z 09012G18KT 5SM -RA BR BKN008 BKN012 OVC024 18/18 A2991 RMK AO2 CIG 006V010 P0020 T01830178
KTCL 221826Z 10008KT 3SM -RA BR BKN010 OVC016 18/18 A2991 RMK AO2 P0020 T01830178
KTCL 221812Z VRB03KT 1 1/4SM +RA BR FEW008 BKN012 OVC024 18/18 A2993 RMK AO2 P0015 T01830183
KTCL 221809Z 09005KT 1 1/4SM +RA BR SCT010 BKN024 OVC033 18/18 A2993 RMK AO2 P0011 T01830183
KTCL 221801Z 09007KT 2SM RA BR FEW012 BKN024 OVC050 18/18 A2993 RMK AO2 P0004 T01830183
KTCL 221753Z 08008KT 1 1/2SM +RA BR FEW012 BKN037 OVC055 18/18 A2994 RMK AO2 SLP135 P0013 60018 T01830183 10194 20178 58034
KTCL 221749Z 09006KT 1 3/4SM +RA BR FEW012 BKN033 OVC070 19/18 A2994 RMK AO2 P0011
KTCL 221740Z 10008G15KT 3SM -RA BR FEW019 BKN030 OVC075 19/18 A2995 RMK AO2 P0005 T01890183
KTCL 221653Z 10007KT 5SM -RA BR FEW017 BKN023 OVC033 19/18 A2999 RMK AO2 SLP154 P0001 T01940178
KTCL 221638Z 12007KT 7SM -RA BKN020 BKN032 19/17 A3000 RMK AO2 P0000 T01940172
KTCL 221608Z 12006KT 8SM -RA SCT017 BKN036 OVC095 19/17 A3000 RMK AO2 P0000 T01890172
KTCL 221553Z 12006KT 7SM -RA BKN017 OVC090 19/17 A3002 RMK AO2 RAB10E26B42 SLP162 P0000 T01890172
KTCL 221453Z 12009G16KT 9SM BKN016 OVC022 19/17 A3004 RMK AO2 SLP169 60004 T01890172 58014
KTCL 221353Z 12008KT 080V150 9SM OVC018 19/17 A3005 RMK AO2 RAB01E41 SLP174 P0004 T01890172
KTCL 221253Z 14008G15KT 10SM OVC017 19/16 A3007 RMK AO2 SLP182 T01890161
KTCL 221153Z VRB04KT 10SM OVC016 18/16 A3008 RMK AO2 RAB00E10 SLP183 P0000 60000 T01830161 10194 20183 53002
KTCL 221053Z AUTO 10009G19KT 10SM OVC018 19/16 A3006 RMK AO2 SLP177 T01890156
KTCL 220953Z AUTO 11005G14KT 10SM OVC020 19/16 A3007 RMK AO2 SLP182 T01890156
KTCL 220914Z AUTO 13008G14KT 10SM BKN023 19/15 A3008 RMK AO2 T01890150
KTCL 220853Z AUTO 11007G16KT 10SM FEW037 19/15 A3007 RMK AO2 SLP180 T01890150 56020
KTCL 220753Z AUTO 13007KT 10SM SCT039 BKN055 BKN070 19/14 A3010 RMK AO2 SLP191 T01890144